sensor_id;sensor_type;location;lat;lon;timestamp;P1;durP1;ratioP1;P2;durP2;ratioP2
50309;SDS011;36207;51.850;21.698;2024-01-30T00:01:23;32.30;;;16.50;;
50309;SDS011;36207;51.850;21.698;2024-01-30T00:03:49;31.20;;;17.40;;
50309;SDS011;36207;51.850;21.698;2024-01-30T00:06:19;35.20;;;19.40;;
50309;SDS011;36207;51.850;21.698;2024-01-30T00:08:49;33.60;;;17.10;;
50309;SDS011;36207;51.850;21.698;2024-01-30T00:11:16;38.00;;;19.40;;
50309;SDS011;36207;51.850;21.698;2024-01-30T00:13:42;44.30;;;21.80;;
50309;SDS011;36207;51.850;21.698;2024-01-30T00:16:08;38.80;;;20.00;;
50309;SDS011;36207;51.850;21.698;2024-01-30T00:18:35;41.30;;;20.70;;
50309;SDS011;36207;51.850;21.698;2024-01-30T00:21:01;42.60;;;21.80;;
50309;SDS011;36207;51.850;21.698;2024-01-30T00:23:27;42.10;;;20.80;;
50309;SDS011;36207;51.850;21.698;2024-01-30T00:25:53;38.30;;;18.90;;
50309;SDS011;36207;51.850;21.698;2024-01-30T00:28:19;38.90;;;20.10;;
50309;SDS011;36207;51.850;21.698;2024-01-30T00:30:45;34.20;;;17.40;;
50309;SDS011;36207;51.850;21.698;2024-01-30T00:33:11;32.50;;;17.90;;
50309;SDS011;36207;51.850;21.698;2024-01-30T00:35:37;36.30;;;19.40;;
50309;SDS011;36207;51.850;21.698;2024-01-30T00:38:03;36.60;;;18.80;;
50309;SDS011;36207;51.850;21.698;2024-01-30T00:40:29;35.20;;;17.80;;
50309;SDS011;36207;51.850;21.698;2024-01-30T00:42:55;38.70;;;19.50;;
50309;SDS011;36207;51.850;21.698;2024-01-30T00:45:21;41.20;;;19.50;;
50309;SDS011;36207;51.850;21.698;2024-01-30T00:47:47;35.00;;;18.60;;
50309;SDS011;36207;51.850;21.698;2024-01-30T00:50:13;42.10;;;21.10;;
50309;SDS011;36207;51.850;21.698;2024-01-30T00:52:39;37.70;;;18.90;;
50309;SDS011;36207;51.850;21.698;2024-01-30T00:55:07;36.80;;;19.50;;
50309;SDS011;36207;51.850;21.698;2024-01-30T00:57:33;37.30;;;18.70;;
50309;SDS011;36207;51.850;21.698;2024-01-30T00:59:59;39.60;;;19.40;;
50309;SDS011;36207;51.850;21.698;2024-01-30T01:02:25;40.40;;;19.70;;
50309;SDS011;36207;51.850;21.698;2024-01-30T01:04:51;48.50;;;22.80;;
50309;SDS011;36207;51.850;21.698;2024-01-30T01:07:17;35.40;;;18.60;;
50309;SDS011;36207;51.850;21.698;2024-01-30T01:09:42;35.40;;;18.70;;
50309;SDS011;36207;51.850;21.698;2024-01-30T01:12:08;37.40;;;17.90;;
50309;SDS011;36207;51.850;21.698;2024-01-30T01:14:35;33.90;;;17.40;;
50309;SDS011;36207;51.850;21.698;2024-01-30T01:17:01;35.10;;;17.10;;
50309;SDS011;36207;51.850;21.698;2024-01-30T01:19:28;38.70;;;18.40;;
50309;SDS011;36207;51.850;21.698;2024-01-30T01:21:53;34.90;;;17.70;;
50309;SDS011;36207;51.850;21.698;2024-01-30T01:24:19;35.90;;;18.80;;
50309;SDS011;36207;51.850;21.698;2024-01-30T01:26:45;42.80;;;20.50;;
50309;SDS011;36207;51.850;21.698;2024-01-30T01:29:11;34.30;;;18.00;;
50309;SDS011;36207;51.850;21.698;2024-01-30T01:31:38;36.10;;;18.30;;
50309;SDS011;36207;51.850;21.698;2024-01-30T01:34:11;36.00;;;18.60;;
50309;SDS011;36207;51.850;21.698;2024-01-30T01:36:38;37.70;;;18.00;;
50309;SDS011;36207;51.850;21.698;2024-01-30T01:39:05;35.60;;;17.70;;
50309;SDS011;36207;51.850;21.698;2024-01-30T01:41:31;36.30;;;18.20;;
50309;SDS011;36207;51.850;21.698;2024-01-30T01:43:58;35.80;;;17.70;;
50309;SDS011;36207;51.850;21.698;2024-01-30T01:46:28;36.40;;;19.00;;
50309;SDS011;36207;51.850;21.698;2024-01-30T01:48:56;37.40;;;19.40;;
50309;SDS011;36207;51.850;21.698;2024-01-30T01:51:23;36.00;;;18.30;;
50309;SDS011;36207;51.850;21.698;2024-01-30T01:53:53;35.90;;;18.40;;
50309;SDS011;36207;51.850;21.698;2024-01-30T01:56:19;42.80;;;19.80;;
50309;SDS011;36207;51.850;21.698;2024-01-30T01:58:46;34.80;;;17.60;;
50309;SDS011;36207;51.850;21.698;2024-01-30T02:01:16;37.30;;;18.00;;
50309;SDS011;36207;51.850;21.698;2024-01-30T02:03:45;37.00;;;18.40;;
50309;SDS011;36207;51.850;21.698;2024-01-30T02:06:14;36.60;;;18.20;;
50309;SDS011;36207;51.850;21.698;2024-01-30T02:08:41;31.90;;;17.50;;
50309;SDS011;36207;51.850;21.698;2024-01-30T02:11:08;32.80;;;17.70;;
50309;SDS011;36207;51.850;21.698;2024-01-30T02:13:35;35.30;;;17.70;;
50309;SDS011;36207;51.850;21.698;2024-01-30T02:16:02;35.20;;;18.00;;
50309;SDS011;36207;51.850;21.698;2024-01-30T02:18:28;34.80;;;18.20;;
50309;SDS011;36207;51.850;21.698;2024-01-30T02:20:56;36.10;;;17.90;;
50309;SDS011;36207;51.850;21.698;2024-01-30T02:23:24;34.50;;;18.40;;
50309;SDS011;36207;51.850;21.698;2024-01-30T02:25:53;35.10;;;18.40;;
50309;SDS011;36207;51.850;21.698;2024-01-30T02:28:19;37.90;;;19.70;;
50309;SDS011;36207;51.850;21.698;2024-01-30T02:30:46;39.70;;;19.10;;
50309;SDS011;36207;51.850;21.698;2024-01-30T02:33:12;40.40;;;20.20;;
50309;SDS011;36207;51.850;21.698;2024-01-30T02:35:39;36.20;;;18.20;;
50309;SDS011;36207;51.850;21.698;2024-01-30T02:38:05;37.10;;;19.30;;
50309;SDS011;36207;51.850;21.698;2024-01-30T02:40:31;36.00;;;19.10;;
50309;SDS011;36207;51.850;21.698;2024-01-30T02:42:58;38.60;;;20.20;;
50309;SDS011;36207;51.850;21.698;2024-01-30T02:45:25;36.70;;;19.80;;
50309;SDS011;36207;51.850;21.698;2024-01-30T02:47:51;39.20;;;19.70;;
50309;SDS011;36207;51.850;21.698;2024-01-30T02:50:17;41.90;;;20.30;;
50309;SDS011;36207;51.850;21.698;2024-01-30T02:52:43;40.00;;;20.40;;
50309;SDS011;36207;51.850;21.698;2024-01-30T02:55:10;40.20;;;20.40;;
50309;SDS011;36207;51.850;21.698;2024-01-30T02:57:37;37.20;;;19.80;;
50309;SDS011;36207;51.850;21.698;2024-01-30T03:00:04;40.20;;;21.30;;
50309;SDS011;36207;51.850;21.698;2024-01-30T03:02:32;38.50;;;19.00;;
50309;SDS011;36207;51.850;21.698;2024-01-30T03:04:59;43.80;;;21.10;;
50309;SDS011;36207;51.850;21.698;2024-01-30T03:07:25;43.60;;;21.20;;
50309;SDS011;36207;51.850;21.698;2024-01-30T03:09:52;42.20;;;21.10;;
50309;SDS011;36207;51.850;21.698;2024-01-30T03:12:18;40.20;;;20.80;;
50309;SDS011;36207;51.850;21.698;2024-01-30T03:14:44;42.70;;;21.40;;
50309;SDS011;36207;51.850;21.698;2024-01-30T03:17:09;41.10;;;21.80;;
50309;SDS011;36207;51.850;21.698;2024-01-30T03:19:35;42.20;;;21.20;;
50309;SDS011;36207;51.850;21.698;2024-01-30T03:22:01;44.20;;;21.00;;
50309;SDS011;36207;51.850;21.698;2024-01-30T03:24:27;43.00;;;20.60;;
50309;SDS011;36207;51.850;21.698;2024-01-30T03:26:53;41.40;;;20.60;;
50309;SDS011;36207;51.850;21.698;2024-01-30T03:29:19;39.90;;;19.80;;
50309;SDS011;36207;51.850;21.698;2024-01-30T03:31:45;41.60;;;20.70;;
50309;SDS011;36207;51.850;21.698;2024-01-30T03:34:11;44.50;;;20.70;;
50309;SDS011;36207;51.850;21.698;2024-01-30T03:36:37;40.30;;;20.30;;
50309;SDS011;36207;51.850;21.698;2024-01-30T03:39:03;39.30;;;19.70;;
50309;SDS011;36207;51.850;21.698;2024-01-30T03:41:29;41.60;;;20.20;;
50309;SDS011;36207;51.850;21.698;2024-01-30T03:43:55;41.40;;;20.20;;
50309;SDS011;36207;51.850;21.698;2024-01-30T03:46:21;40.00;;;20.10;;
50309;SDS011;36207;51.850;21.698;2024-01-30T03:48:47;42.40;;;21.00;;
50309;SDS011;36207;51.850;21.698;2024-01-30T03:51:13;40.40;;;19.80;;
50309;SDS011;36207;51.850;21.698;2024-01-30T03:53:40;41.20;;;20.60;;
50309;SDS011;36207;51.850;21.698;2024-01-30T03:56:07;40.80;;;19.80;;
50309;SDS011;36207;51.850;21.698;2024-01-30T03:58:34;38.50;;;19.80;;
50309;SDS011;36207;51.850;21.698;2024-01-30T04:01:00;39.10;;;20.70;;
50309;SDS011;36207;51.850;21.698;2024-01-30T04:03:26;41.20;;;20.20;;
50309;SDS011;36207;51.850;21.698;2024-01-30T04:05:52;40.90;;;20.70;;
50309;SDS011;36207;51.850;21.698;2024-01-30T04:08:19;44.70;;;20.80;;
50309;SDS011;36207;51.850;21.698;2024-01-30T04:10:46;43.60;;;20.50;;
50309;SDS011;36207;51.850;21.698;2024-01-30T04:13:13;40.40;;;20.50;;
50309;SDS011;36207;51.850;21.698;2024-01-30T04:15:39;38.80;;;19.90;;
50309;SDS011;36207;51.850;21.698;2024-01-30T04:18:05;41.50;;;20.70;;
50309;SDS011;36207;51.850;21.698;2024-01-30T04:20:32;40.30;;;20.00;;
50309;SDS011;36207;51.850;21.698;2024-01-30T04:22:58;39.00;;;20.20;;
50309;SDS011;36207;51.850;21.698;2024-01-30T04:25:24;40.30;;;19.90;;
50309;SDS011;36207;51.850;21.698;2024-01-30T04:27:49;38.60;;;20.20;;
50309;SDS011;36207;51.850;21.698;2024-01-30T04:30:15;40.60;;;20.90;;
50309;SDS011;36207;51.850;21.698;2024-01-30T04:32:42;36.60;;;19.60;;
50309;SDS011;36207;51.850;21.698;2024-01-30T04:35:08;40.60;;;20.50;;
50309;SDS011;36207;51.850;21.698;2024-01-30T04:37:34;40.60;;;21.30;;
50309;SDS011;36207;51.850;21.698;2024-01-30T04:40:00;41.30;;;20.80;;
50309;SDS011;36207;51.850;21.698;2024-01-30T04:42:26;38.70;;;19.40;;
50309;SDS011;36207;51.850;21.698;2024-01-30T04:44:52;39.90;;;20.10;;
50309;SDS011;36207;51.850;21.698;2024-01-30T04:47:18;40.90;;;20.70;;
50309;SDS011;36207;51.850;21.698;2024-01-30T04:49:44;39.30;;;19.10;;
50309;SDS011;36207;51.850;21.698;2024-01-30T04:52:10;36.70;;;19.20;;
50309;SDS011;36207;51.850;21.698;2024-01-30T04:54:36;41.50;;;19.70;;
50309;SDS011;36207;51.850;21.698;2024-01-30T04:57:02;38.60;;;19.30;;
50309;SDS011;36207;51.850;21.698;2024-01-30T04:59:28;34.40;;;18.30;;
50309;SDS011;36207;51.850;21.698;2024-01-30T05:01:54;39.20;;;18.20;;
50309;SDS011;36207;51.850;21.698;2024-01-30T05:04:20;37.20;;;18.30;;
50309;SDS011;36207;51.850;21.698;2024-01-30T05:06:47;40.50;;;18.40;;
50309;SDS011;36207;51.850;21.698;2024-01-30T05:09:13;40.40;;;18.50;;
50309;SDS011;36207;51.850;21.698;2024-01-30T05:11:39;39.40;;;19.50;;
50309;SDS011;36207;51.850;21.698;2024-01-30T05:14:07;36.70;;;19.80;;
50309;SDS011;36207;51.850;21.698;2024-01-30T05:16:34;39.20;;;19.30;;
50309;SDS011;36207;51.850;21.698;2024-01-30T05:19:00;34.70;;;18.60;;
50309;SDS011;36207;51.850;21.698;2024-01-30T05:21:26;36.60;;;19.30;;
50309;SDS011;36207;51.850;21.698;2024-01-30T05:23:52;36.90;;;19.40;;
50309;SDS011;36207;51.850;21.698;2024-01-30T05:26:18;39.10;;;20.20;;
50309;SDS011;36207;51.850;21.698;2024-01-30T05:28:44;37.80;;;19.40;;
50309;SDS011;36207;51.850;21.698;2024-01-30T05:31:10;40.20;;;19.70;;
50309;SDS011;36207;51.850;21.698;2024-01-30T05:33:37;40.10;;;19.60;;
50309;SDS011;36207;51.850;21.698;2024-01-30T05:36:03;39.30;;;19.30;;
50309;SDS011;36207;51.850;21.698;2024-01-30T05:38:29;38.80;;;19.30;;
50309;SDS011;36207;51.850;21.698;2024-01-30T05:40:56;42.40;;;20.60;;
50309;SDS011;36207;51.850;21.698;2024-01-30T05:43:23;36.80;;;19.80;;
50309;SDS011;36207;51.850;21.698;2024-01-30T05:45:50;40.40;;;19.80;;
50309;SDS011;36207;51.850;21.698;2024-01-30T05:48:17;38.50;;;18.80;;
50309;SDS011;36207;51.850;21.698;2024-01-30T05:50:43;37.60;;;19.30;;
50309;SDS011;36207;51.850;21.698;2024-01-30T05:53:09;37.40;;;19.20;;
50309;SDS011;36207;51.850;21.698;2024-01-30T05:55:35;38.10;;;20.00;;
50309;SDS011;36207;51.850;21.698;2024-01-30T05:58:01;43.00;;;19.90;;
50309;SDS011;36207;51.850;21.698;2024-01-30T06:00:27;37.90;;;20.00;;
50309;SDS011;36207;51.850;21.698;2024-01-30T06:02:53;37.70;;;19.40;;
50309;SDS011;36207;51.850;21.698;2024-01-30T06:05:19;38.60;;;18.90;;
50309;SDS011;36207;51.850;21.698;2024-01-30T06:07:45;36.10;;;19.10;;
50309;SDS011;36207;51.850;21.698;2024-01-30T06:10:11;38.70;;;18.10;;
50309;SDS011;36207;51.850;21.698;2024-01-30T06:12:37;37.60;;;18.40;;
50309;SDS011;36207;51.850;21.698;2024-01-30T06:15:03;37.20;;;18.50;;
50309;SDS011;36207;51.850;21.698;2024-01-30T06:17:30;38.70;;;18.30;;
50309;SDS011;36207;51.850;21.698;2024-01-30T06:19:56;36.50;;;18.60;;
50309;SDS011;36207;51.850;21.698;2024-01-30T06:22:22;38.90;;;17.90;;
50309;SDS011;36207;51.850;21.698;2024-01-30T06:24:48;39.60;;;19.90;;
50309;SDS011;36207;51.850;21.698;2024-01-30T06:27:14;39.70;;;18.70;;
50309;SDS011;36207;51.850;21.698;2024-01-30T06:29:42;38.30;;;18.70;;
50309;SDS011;36207;51.850;21.698;2024-01-30T06:32:08;34.00;;;18.00;;
50309;SDS011;36207;51.850;21.698;2024-01-30T06:34:34;35.90;;;18.50;;
50309;SDS011;36207;51.850;21.698;2024-01-30T06:37:00;39.10;;;18.20;;
50309;SDS011;36207;51.850;21.698;2024-01-30T06:39:26;38.10;;;18.80;;
50309;SDS011;36207;51.850;21.698;2024-01-30T06:41:52;37.10;;;19.00;;
50309;SDS011;36207;51.850;21.698;2024-01-30T06:44:18;40.50;;;18.30;;
50309;SDS011;36207;51.850;21.698;2024-01-30T06:46:44;38.80;;;19.30;;
50309;SDS011;36207;51.850;21.698;2024-01-30T06:49:10;33.80;;;18.00;;
50309;SDS011;36207;51.850;21.698;2024-01-30T06:51:36;39.70;;;18.00;;
50309;SDS011;36207;51.850;21.698;2024-01-30T06:54:02;38.80;;;17.70;;
50309;SDS011;36207;51.850;21.698;2024-01-30T06:56:29;38.40;;;18.30;;
50309;SDS011;36207;51.850;21.698;2024-01-30T06:58:55;34.10;;;18.00;;
50309;SDS011;36207;51.850;21.698;2024-01-30T07:01:29;41.20;;;19.10;;
50309;SDS011;36207;51.850;21.698;2024-01-30T07:03:55;38.30;;;19.20;;
50309;SDS011;36207;51.850;21.698;2024-01-30T07:06:21;37.10;;;18.00;;
50309;SDS011;36207;51.850;21.698;2024-01-30T07:08:49;35.30;;;17.00;;
50309;SDS011;36207;51.850;21.698;2024-01-30T07:11:20;37.00;;;18.00;;
50309;SDS011;36207;51.850;21.698;2024-01-30T07:13:48;38.90;;;17.10;;
50309;SDS011;36207;51.850;21.698;2024-01-30T07:16:14;32.40;;;16.80;;
50309;SDS011;36207;51.850;21.698;2024-01-30T07:18:41;39.70;;;18.60;;
50309;SDS011;36207;51.850;21.698;2024-01-30T07:21:07;32.60;;;17.80;;
50309;SDS011;36207;51.850;21.698;2024-01-30T07:23:33;33.50;;;16.40;;
50309;SDS011;36207;51.850;21.698;2024-01-30T07:26:03;34.40;;;16.70;;
50309;SDS011;36207;51.850;21.698;2024-01-30T07:28:29;33.30;;;16.20;;
50309;SDS011;36207;51.850;21.698;2024-01-30T07:30:56;30.30;;;16.20;;
50309;SDS011;36207;51.850;21.698;2024-01-30T07:33:21;29.10;;;15.80;;
50309;SDS011;36207;51.850;21.698;2024-01-30T07:35:47;32.10;;;16.00;;
50309;SDS011;36207;51.850;21.698;2024-01-30T07:38:13;30.70;;;15.60;;
50309;SDS011;36207;51.850;21.698;2024-01-30T07:40:39;29.40;;;15.40;;
50309;SDS011;36207;51.850;21.698;2024-01-30T07:43:06;29.90;;;16.00;;
50309;SDS011;36207;51.850;21.698;2024-01-30T07:45:32;32.30;;;15.70;;
50309;SDS011;36207;51.850;21.698;2024-01-30T07:47:58;28.00;;;15.60;;
50309;SDS011;36207;51.850;21.698;2024-01-30T07:50:27;27.10;;;14.80;;
50309;SDS011;36207;51.850;21.698;2024-01-30T07:52:55;32.50;;;15.80;;
50309;SDS011;36207;51.850;21.698;2024-01-30T07:55:22;28.00;;;15.10;;
50309;SDS011;36207;51.850;21.698;2024-01-30T07:57:51;27.70;;;14.70;;
50309;SDS011;36207;51.850;21.698;2024-01-30T08:00:18;28.90;;;14.90;;
50309;SDS011;36207;51.850;21.698;2024-01-30T08:02:45;30.40;;;15.60;;
50309;SDS011;36207;51.850;21.698;2024-01-30T08:05:12;28.30;;;15.10;;
50309;SDS011;36207;51.850;21.698;2024-01-30T08:07:40;27.60;;;14.90;;
50309;SDS011;36207;51.850;21.698;2024-01-30T08:10:08;30.50;;;15.50;;
50309;SDS011;36207;51.850;21.698;2024-01-30T08:12:36;27.40;;;15.00;;
50309;SDS011;36207;51.850;21.698;2024-01-30T08:15:04;27.10;;;14.90;;
50309;SDS011;36207;51.850;21.698;2024-01-30T08:17:30;24.30;;;14.10;;
50309;SDS011;36207;51.850;21.698;2024-01-30T08:19:56;26.60;;;14.50;;
50309;SDS011;36207;51.850;21.698;2024-01-30T08:22:22;28.90;;;15.30;;
50309;SDS011;36207;51.850;21.698;2024-01-30T08:24:48;26.90;;;14.10;;
50309;SDS011;36207;51.850;21.698;2024-01-30T08:27:14;28.90;;;15.20;;
50309;SDS011;36207;51.850;21.698;2024-01-30T08:29:40;28.30;;;14.50;;
50309;SDS011;36207;51.850;21.698;2024-01-30T08:32:06;28.00;;;15.00;;
50309;SDS011;36207;51.850;21.698;2024-01-30T08:34:33;25.70;;;14.40;;
50309;SDS011;36207;51.850;21.698;2024-01-30T08:36:59;24.20;;;13.60;;
50309;SDS011;36207;51.850;21.698;2024-01-30T08:39:25;27.30;;;14.40;;
50309;SDS011;36207;51.850;21.698;2024-01-30T08:41:51;26.00;;;14.20;;
50309;SDS011;36207;51.850;21.698;2024-01-30T08:44:17;27.10;;;13.80;;
50309;SDS011;36207;51.850;21.698;2024-01-30T08:46:46;24.00;;;13.30;;
50309;SDS011;36207;51.850;21.698;2024-01-30T08:49:12;25.40;;;13.70;;
50309;SDS011;36207;51.850;21.698;2024-01-30T08:51:39;25.30;;;14.10;;
50309;SDS011;36207;51.850;21.698;2024-01-30T08:54:05;23.80;;;13.70;;
50309;SDS011;36207;51.850;21.698;2024-01-30T08:56:31;25.20;;;14.30;;
50309;SDS011;36207;51.850;21.698;2024-01-30T08:58:57;24.00;;;13.50;;
50309;SDS011;36207;51.850;21.698;2024-01-30T09:01:23;24.00;;;13.70;;
50309;SDS011;36207;51.850;21.698;2024-01-30T09:03:49;24.60;;;12.80;;
50309;SDS011;36207;51.850;21.698;2024-01-30T09:06:14;25.10;;;13.20;;
50309;SDS011;36207;51.850;21.698;2024-01-30T09:08:40;23.10;;;13.10;;
50309;SDS011;36207;51.850;21.698;2024-01-30T09:11:13;25.00;;;13.40;;
50309;SDS011;36207;51.850;21.698;2024-01-30T09:13:41;23.60;;;13.50;;
50309;SDS011;36207;51.850;21.698;2024-01-30T09:16:07;19.80;;;12.20;;
50309;SDS011;36207;51.850;21.698;2024-01-30T09:18:33;25.00;;;12.60;;
50309;SDS011;36207;51.850;21.698;2024-01-30T09:20:59;23.70;;;12.70;;
50309;SDS011;36207;51.850;21.698;2024-01-30T09:23:26;22.30;;;12.90;;
50309;SDS011;36207;51.850;21.698;2024-01-30T09:25:53;26.30;;;13.40;;
50309;SDS011;36207;51.850;21.698;2024-01-30T09:28:19;24.50;;;13.20;;
50309;SDS011;36207;51.850;21.698;2024-01-30T09:30:45;26.40;;;13.30;;
50309;SDS011;36207;51.850;21.698;2024-01-30T09:33:11;21.20;;;12.60;;
50309;SDS011;36207;51.850;21.698;2024-01-30T09:35:37;22.40;;;12.70;;
50309;SDS011;36207;51.850;21.698;2024-01-30T09:38:03;24.10;;;13.20;;
50309;SDS011;36207;51.850;21.698;2024-01-30T09:40:29;23.40;;;13.40;;
50309;SDS011;36207;51.850;21.698;2024-01-30T09:42:55;22.70;;;12.40;;
50309;SDS011;36207;51.850;21.698;2024-01-30T09:45:25;21.10;;;12.80;;
50309;SDS011;36207;51.850;21.698;2024-01-30T09:47:51;21.60;;;12.50;;
50309;SDS011;36207;51.850;21.698;2024-01-30T09:50:19;20.90;;;12.40;;
50309;SDS011;36207;51.850;21.698;2024-01-30T09:52:46;21.90;;;12.80;;
50309;SDS011;36207;51.850;21.698;2024-01-30T09:55:13;24.70;;;12.80;;
50309;SDS011;36207;51.850;21.698;2024-01-30T09:57:39;23.50;;;13.20;;
50309;SDS011;36207;51.850;21.698;2024-01-30T10:00:07;21.80;;;12.40;;
50309;SDS011;36207;51.850;21.698;2024-01-30T10:02:34;22.00;;;12.80;;
50309;SDS011;36207;51.850;21.698;2024-01-30T10:05:01;22.70;;;12.50;;
50309;SDS011;36207;51.850;21.698;2024-01-30T10:07:28;23.50;;;12.80;;
50309;SDS011;36207;51.850;21.698;2024-01-30T10:09:54;23.50;;;13.30;;
50309;SDS011;36207;51.850;21.698;2024-01-30T10:12:22;24.20;;;12.80;;
50309;SDS011;36207;51.850;21.698;2024-01-30T10:14:48;21.80;;;12.20;;
50309;SDS011;36207;51.850;21.698;2024-01-30T10:17:14;21.40;;;12.60;;
50309;SDS011;36207;51.850;21.698;2024-01-30T10:19:40;22.30;;;13.00;;
50309;SDS011;36207;51.850;21.698;2024-01-30T10:22:07;22.30;;;12.50;;
50309;SDS011;36207;51.850;21.698;2024-01-30T10:24:35;24.20;;;12.70;;
50309;SDS011;36207;51.850;21.698;2024-01-30T10:27:02;22.10;;;12.50;;
50309;SDS011;36207;51.850;21.698;2024-01-30T10:29:28;23.20;;;12.70;;
50309;SDS011;36207;51.850;21.698;2024-01-30T10:32:01;21.50;;;12.40;;
50309;SDS011;36207;51.850;21.698;2024-01-30T10:34:28;23.80;;;13.00;;
50309;SDS011;36207;51.850;21.698;2024-01-30T10:37:15;24.10;;;13.70;;
50309;SDS011;36207;51.850;21.698;2024-01-30T10:39:42;23.90;;;13.10;;
50309;SDS011;36207;51.850;21.698;2024-01-30T10:42:14;25.20;;;13.50;;
50309;SDS011;36207;51.850;21.698;2024-01-30T10:47:54;22.50;;;13.00;;
50309;SDS011;36207;51.850;21.698;2024-01-30T10:50:24;25.00;;;13.30;;
50309;SDS011;36207;51.850;21.698;2024-01-30T10:52:51;24.90;;;13.70;;
50309;SDS011;36207;51.850;21.698;2024-01-30T10:55:18;24.10;;;13.30;;
50309;SDS011;36207;51.850;21.698;2024-01-30T10:57:44;23.80;;;12.90;;
50309;SDS011;36207;51.850;21.698;2024-01-30T11:00:10;24.80;;;13.10;;
50309;SDS011;36207;51.850;21.698;2024-01-30T11:02:42;23.50;;;12.90;;
50309;SDS011;36207;51.850;21.698;2024-01-30T11:05:10;20.50;;;12.00;;
50309;SDS011;36207;51.850;21.698;2024-01-30T11:07:38;21.60;;;12.60;;
50309;SDS011;36207;51.850;21.698;2024-01-30T11:10:06;23.50;;;12.70;;
50309;SDS011;36207;51.850;21.698;2024-01-30T11:12:40;20.80;;;12.50;;
50309;SDS011;36207;51.850;21.698;2024-01-30T11:15:09;22.60;;;12.20;;
50309;SDS011;36207;51.850;21.698;2024-01-30T11:20:14;23.90;;;12.80;;
50309;SDS011;36207;51.850;21.698;2024-01-30T11:22:42;22.50;;;12.80;;
50309;SDS011;36207;51.850;21.698;2024-01-30T11:25:11;24.10;;;13.10;;
50309;SDS011;36207;51.850;21.698;2024-01-30T11:27:41;21.70;;;12.60;;
50309;SDS011;36207;51.850;21.698;2024-01-30T11:30:08;20.30;;;12.00;;
50309;SDS011;36207;51.850;21.698;2024-01-30T11:32:34;24.00;;;11.90;;
50309;SDS011;36207;51.850;21.698;2024-01-30T11:35:04;23.70;;;13.00;;
50309;SDS011;36207;51.850;21.698;2024-01-30T11:37:32;22.20;;;12.80;;
50309;SDS011;36207;51.850;21.698;2024-01-30T11:40:03;22.60;;;11.90;;
50309;SDS011;36207;51.850;21.698;2024-01-30T11:42:30;24.40;;;12.50;;
50309;SDS011;36207;51.850;21.698;2024-01-30T11:44:56;21.00;;;12.10;;
50309;SDS011;36207;51.850;21.698;2024-01-30T11:47:22;20.90;;;12.20;;
50309;SDS011;36207;51.850;21.698;2024-01-30T11:49:48;21.60;;;11.40;;
50309;SDS011;36207;51.850;21.698;2024-01-30T11:52:14;20.30;;;11.40;;
50309;SDS011;36207;51.850;21.698;2024-01-30T11:54:40;21.30;;;11.80;;
50309;SDS011;36207;51.850;21.698;2024-01-30T11:57:06;21.40;;;12.00;;
50309;SDS011;36207;51.850;21.698;2024-01-30T11:59:32;21.10;;;12.00;;
50309;SDS011;36207;51.850;21.698;2024-01-30T12:01:58;19.30;;;11.50;;
50309;SDS011;36207;51.850;21.698;2024-01-30T12:04:27;21.20;;;12.00;;
50309;SDS011;36207;51.850;21.698;2024-01-30T12:06:54;21.80;;;11.80;;
50309;SDS011;36207;51.850;21.698;2024-01-30T12:09:21;21.10;;;11.50;;
50309;SDS011;36207;51.850;21.698;2024-01-30T12:11:47;25.60;;;11.80;;
50309;SDS011;36207;51.850;21.698;2024-01-30T12:14:15;18.90;;;11.00;;
50309;SDS011;36207;51.850;21.698;2024-01-30T12:16:42;23.90;;;12.50;;
50309;SDS011;36207;51.850;21.698;2024-01-30T12:19:08;22.10;;;11.60;;
50309;SDS011;36207;51.850;21.698;2024-01-30T12:21:34;18.90;;;10.90;;
50309;SDS011;36207;51.850;21.698;2024-01-30T12:24:01;20.10;;;11.40;;
50309;SDS011;36207;51.850;21.698;2024-01-30T12:26:27;21.30;;;11.90;;
50309;SDS011;36207;51.850;21.698;2024-01-30T12:28:54;19.90;;;11.00;;
50309;SDS011;36207;51.850;21.698;2024-01-30T12:31:27;19.40;;;11.20;;
50309;SDS011;36207;51.850;21.698;2024-01-30T12:33:54;23.40;;;12.00;;
50309;SDS011;36207;51.850;21.698;2024-01-30T12:36:21;22.60;;;11.90;;
50309;SDS011;36207;51.850;21.698;2024-01-30T12:38:47;22.10;;;11.20;;
50309;SDS011;36207;51.850;21.698;2024-01-30T12:41:14;20.10;;;11.30;;
50309;SDS011;36207;51.850;21.698;2024-01-30T12:43:40;23.20;;;11.40;;
50309;SDS011;36207;51.850;21.698;2024-01-30T12:46:06;20.10;;;11.20;;
50309;SDS011;36207;51.850;21.698;2024-01-30T12:48:32;19.70;;;11.00;;
50309;SDS011;36207;51.850;21.698;2024-01-30T12:50:58;20.30;;;11.20;;
50309;SDS011;36207;51.850;21.698;2024-01-30T12:53:25;19.90;;;11.60;;
50309;SDS011;36207;51.850;21.698;2024-01-30T12:55:51;19.30;;;11.20;;
50309;SDS011;36207;51.850;21.698;2024-01-30T12:58:16;19.20;;;11.00;;
50309;SDS011;36207;51.850;21.698;2024-01-30T13:00:42;21.80;;;11.00;;
50309;SDS011;36207;51.850;21.698;2024-01-30T13:03:09;20.70;;;11.20;;
50309;SDS011;36207;51.850;21.698;2024-01-30T13:05:35;18.20;;;10.80;;
50309;SDS011;36207;51.850;21.698;2024-01-30T13:08:01;17.60;;;10.50;;
50309;SDS011;36207;51.850;21.698;2024-01-30T13:10:27;19.70;;;11.10;;
50309;SDS011;36207;51.850;21.698;2024-01-30T13:12:53;20.30;;;10.70;;
50309;SDS011;36207;51.850;21.698;2024-01-30T13:15:19;16.50;;;10.20;;
50309;SDS011;36207;51.850;21.698;2024-01-30T13:17:45;19.10;;;10.70;;
50309;SDS011;36207;51.850;21.698;2024-01-30T13:20:14;20.30;;;10.50;;
50309;SDS011;36207;51.850;21.698;2024-01-30T13:22:45;17.00;;;10.00;;
50309;SDS011;36207;51.850;21.698;2024-01-30T13:25:12;18.40;;;9.90;;
50309;SDS011;36207;51.850;21.698;2024-01-30T13:27:38;18.70;;;10.70;;
50309;SDS011;36207;51.850;21.698;2024-01-30T13:30:04;19.20;;;10.00;;
50309;SDS011;36207;51.850;21.698;2024-01-30T13:32:32;21.00;;;10.50;;
50309;SDS011;36207;51.850;21.698;2024-01-30T13:34:58;18.70;;;10.40;;
50309;SDS011;36207;51.850;21.698;2024-01-30T13:37:24;19.70;;;10.30;;
50309;SDS011;36207;51.850;21.698;2024-01-30T13:39:50;16.70;;;10.00;;
50309;SDS011;36207;51.850;21.698;2024-01-30T13:42:16;16.80;;;9.90;;
50309;SDS011;36207;51.850;21.698;2024-01-30T13:44:42;18.50;;;9.90;;
50309;SDS011;36207;51.850;21.698;2024-01-30T13:47:10;21.70;;;10.20;;
50309;SDS011;36207;51.850;21.698;2024-01-30T13:49:37;17.50;;;10.10;;
50309;SDS011;36207;51.850;21.698;2024-01-30T13:52:03;17.90;;;10.00;;
50309;SDS011;36207;51.850;21.698;2024-01-30T13:54:29;17.00;;;9.60;;
50309;SDS011;36207;51.850;21.698;2024-01-30T13:56:56;17.10;;;9.80;;
50309;SDS011;36207;51.850;21.698;2024-01-30T13:59:22;17.40;;;10.00;;
50309;SDS011;36207;51.850;21.698;2024-01-30T14:01:51;18.70;;;10.10;;
50309;SDS011;36207;51.850;21.698;2024-01-30T14:04:17;18.70;;;10.00;;
50309;SDS011;36207;51.850;21.698;2024-01-30T14:06:43;16.50;;;9.50;;
50309;SDS011;36207;51.850;21.698;2024-01-30T14:09:09;19.10;;;9.90;;
50309;SDS011;36207;51.850;21.698;2024-01-30T14:11:35;16.50;;;9.60;;